Flight Track Log - Related Links

Times and Time Zones

All times are in EDT time to prevent confusion due to time zone crossing. See the EJA831 flight status page for this flight to view local times or setup timezone preferences in your user account.

Time Position Orientation Groundspeed Altitude Reporting Facility
EDT Latitude Longitude Course Direction KTS MPH feet Rate Location/Type
Sun 04:41:50 PM 40.9350 -85.1381 217° Southwest 210 242 4,300  Level Chicago Center
Sun 04:42:52 PM 40.8767 -85.1925 215° Southwest 274 315 6,800 2,806 Climbing Chicago Center
Sun 04:43:54 PM 40.8147 -85.2614 220° Southwest 287 330 10,100 2,952 Climbing Chicago Center
Sun 04:44:56 PM 40.7508 -85.3319 220° Southwest 295 339 12,900 3,145 Climbing Chicago Center
Sun 04:45:58 PM 40.6733 -85.4228 222° Southwest 307 353 16,600 3,097 Climbing Chicago Center
Sun 04:47:00 PM 40.4958 -85.6709 217° Southwest  Level FlightAware Approximate
Sun 04:47:00 PM 40.6097 -85.4942 220° Southwest 298 343 19,300  Level Chicago Center
Sun 04:48:02 PM 40.5467 -85.5639 220° Southwest 299 344 21,500 1,790 Climbing Chicago Center
Sun 04:49:04 PM 40.4806 -85.6356 220° Southwest 308 354 23,000 774 Climbing Chicago Center
Sun 04:50:06 PM 40.4083 -85.7175 221° Southwest 336 387 23,100 629 Climbing Chicago Center
Sun 04:51:08 PM 40.3308 -85.8042 220° Southwest 359 413 24,300 1,403 Climbing Chicago Center
Sun 04:52:10 PM 40.2400 -85.9036 220° Southwest 359 413 26,000 1,488 Climbing Chicago Center
Sun 04:53:13 PM 40.1683 -85.9828 220° Southwest 345 397 27,400 1,344 Climbing Chicago Center
Sun 04:54:15 PM 40.0981 -86.0597 220° Southwest 335 386 28,800 1,355 Climbing Chicago Center
Sun 04:55:17 PM 40.0267 -86.1375 220° Southwest 335 386 30,200 1,364 Climbing Chicago Center
Sun 04:56:27 PM 39.9431 -86.2289 220° Southwest 328 377 31,800 1,227 Climbing Indianapolis Center
Sun 04:57:29 PM 39.8750 -86.3056 221° Southwest 328 377 32,900 1,065 Climbing Indianapolis Center
Sun 04:58:31 PM 39.7978 -86.3811 217° Southwest 342 394 34,000 1,122 Climbing Indianapolis Center
Sun 04:59:32 PM 39.7028 -86.4531 210° Southwest 348 400 35,200 1,122 Climbing Indianapolis Center
Sun 05:00:34 PM 39.6217 -86.5144 210° Southwest 344 396 36,300 1,113 Climbing Indianapolis Center
Sun 05:01:36 PM 39.5397 -86.5758 210° Southwest 343 395 37,500 1,024 Climbing Indianapolis Center
Sun 05:02:37 PM 39.4586 -86.6375 210° Southwest 341 392 38,400 732 Climbing Indianapolis Center
Sun 05:03:39 PM 39.3767 -86.6992 210° Southwest 342 394 39,000 677 Climbing Indianapolis Center
Sun 05:04:41 PM 39.2753 -86.7756 210° Southwest 354 407 39,800 484 Climbing Indianapolis Center
Sun 05:05:43 PM 39.1883 -86.8397 210° Southwest 359 413 40,000 98 Climbing Indianapolis Center
Sun 05:06:44 PM 39.1056 -86.9008 210° Southwest 370 426 40,000  Level Indianapolis Center
Sun 05:07:46 PM 38.9950 -86.9842 210° Southwest 382 440 40,000  Level Indianapolis Center
Sun 05:08:48 PM 38.9006 -87.0550 210° Southwest 390 449 40,000  Level Indianapolis Center
Sun 05:09:49 PM 38.8058 -87.1233 209° Southwest 391 450 40,000  Level Indianapolis Center
Sun 05:10:51 PM 38.7117 -87.1931 210° Southwest 392 451 40,000  Level Indianapolis Center
Sun 05:11:53 PM 38.6178 -87.2628 210° Southwest 393 452 40,000  Level Indianapolis Center
Sun 05:12:55 PM 38.5231 -87.3328 210° Southwest 395 455 40,000  Level Indianapolis Center
Sun 05:13:56 PM 38.4272 -87.4025 210° Southwest 398 458 40,000  Level Indianapolis Center
Sun 05:14:58 PM 38.3122 -87.4861 210° Southwest 399 459 40,000  Level Indianapolis Center
Sun 05:16:00 PM 38.2161 -87.5558 210° Southwest 400 460 40,000  Level Indianapolis Center
Sun 05:17:02 PM 38.1189 -87.6250 209° Southwest 402 463 40,000  Level Indianapolis Center
Sun 05:18:04 PM 38.0233 -87.6950 210° Southwest 399 459 40,000  Level Indianapolis Center
Sun 05:19:05 PM 37.9272 -87.7681 211° Southwest 402 463 40,000  Level Indianapolis Center
Sun 05:21:08 PM 37.7717 -87.9936 229° Southwest 394 453 40,000  Level Memphis Center
Sun 05:22:08 PM 37.6967 -88.0953 227° Southwest 394 453 40,000  Level Memphis Center
Sun 05:23:08 PM 37.6256 -88.2022 230° Southwest 394 453 40,000  Level Memphis Center
Sun 05:24:15 PM 37.5472 -88.3122 228° Southwest 397 457 40,000  Level Indianapolis Center
Sun 05:25:08 PM 37.4792 -88.4125 229° Southwest 394 453 40,000  Level Memphis Center
Sun 05:26:08 PM 37.4078 -88.5161 229° Southwest 394 453 40,000  Level Memphis Center
Sun 05:27:08 PM 37.3344 -88.6222 229° Southwest 399 459 40,000  Level Memphis Center
Sun 05:28:08 PM 37.2586 -88.7256 227° Southwest 399 459 40,000  Level Memphis Center
Sun 05:29:08 PM 37.1850 -88.8311 229° Southwest 399 459 40,000  Level Memphis Center
Sun 05:30:08 PM 37.1111 -88.9342 228° Southwest 399 459 40,000  Level Memphis Center
Sun 05:31:08 PM 37.0372 -89.0367 228° Southwest 399 459 40,000  Level Memphis Center
Sun 05:32:08 PM 36.9656 -89.1392 229° Southwest 399 459 40,000  Level Memphis Center
Sun 05:33:08 PM 36.8936 -89.2414 229° Southwest 399 459 40,000  Level Memphis Center
Sun 05:34:08 PM 36.8194 -89.3436 228° Southwest 399 459 40,000  Level Memphis Center
Sun 05:35:08 PM 36.7472 -89.4481 229° Southwest 399 459 40,000  Level Memphis Center
Sun 05:36:08 PM 36.6728 -89.5497 228° Southwest 399 459 40,000  Level Memphis Center
Sun 05:37:08 PM 36.5986 -89.6539 228° Southwest 399 459 40,000  Level Memphis Center
Sun 05:38:08 PM 36.5219 -89.7553 227° Southwest 399 459 40,000  Level Memphis Center
Sun 05:39:08 PM 36.4453 -89.8564 227° Southwest 394 453 40,000  Level Memphis Center
Sun 05:40:08 PM 36.3686 -89.9625 228° Southwest 400 460 40,000 350 Level Memphis Center
Sun 05:41:08 PM 36.2936 -90.0608 227° Southwest 400 460 40,700 850 Climbing Memphis Center
Sun 05:42:08 PM 36.2211 -90.1589 228° Southwest 395 455 41,700 900 Climbing Memphis Center
Sun 05:43:08 PM 36.1481 -90.2542 226° Southwest 395 455 42,500 600 Climbing Memphis Center
Sun 05:44:08 PM 36.0772 -90.3519 228° Southwest 395 455 42,900 250 Climbing Memphis Center
Sun 05:45:08 PM 36.0042 -90.4467 226° Southwest 395 455 43,000 50 Climbing Memphis Center
Sun 05:46:08 PM 35.9292 -90.5467 227° Southwest 395 455 43,000  Level Memphis Center
Sun 05:47:08 PM 35.8558 -90.6464 228° Southwest 395 455 43,000  Level Memphis Center
Sun 05:48:08 PM 35.7764 -90.7486 226° Southwest 400 460 43,000  Level Memphis Center
Sun 05:49:08 PM 35.6989 -90.8531 228° Southwest 400 460 43,000  Level Memphis Center
Sun 05:50:08 PM 35.6275 -90.9572 230° Southwest 406 467 43,000  Level Memphis Center
Sun 05:51:08 PM 35.5478 -91.0614 227° Southwest 415 478 43,000  Level Memphis Center
Sun 05:52:08 PM 35.4700 -91.1628 227° Southwest 415 478 43,000  Level Memphis Center
Sun 05:53:08 PM 35.3858 -91.2661 225° Southwest 423 487 43,000  Level Memphis Center
Sun 05:54:08 PM 35.3058 -91.3697 227° Southwest 423 487 43,000  Level Memphis Center
Sun 05:55:08 PM 35.2256 -91.4703 226° Southwest 423 487 43,000  Level Memphis Center
Sun 05:56:08 PM 35.1453 -91.5786 228° Southwest 423 487 43,000  Level Memphis Center
Sun 05:57:08 PM 35.0650 -91.6814 226° Southwest 423 487 43,000  Level Memphis Center
Sun 05:58:08 PM 34.9825 -91.7842 226° Southwest 423 487 43,000  Level Memphis Center
Sun 05:59:08 PM 34.9042 -91.8892 228° Southwest 423 487 43,000  Level Memphis Center
Sun 06:00:08 PM 34.8236 -91.9914 226° Southwest 423 487 43,000  Level Memphis Center
Sun 06:01:08 PM 34.7408 -92.0983 227° Southwest 423 487 43,000  Level Memphis Center
Sun 06:02:08 PM 34.6722 -92.2106 233° Southwest 423 487 43,000  Level Memphis Center
Sun 06:03:08 PM 34.6347 -92.3436 251° West 414 476 43,000  Level Memphis Center
Sun 06:04:08 PM 34.5972 -92.4764 251° West 420 483 43,000  Level Memphis Center
Sun 06:05:08 PM 34.5614 -92.6117 252° West 420 483 43,000  Level Memphis Center
Sun 06:06:08 PM 34.5256 -92.7444 252° West 420 483 43,000  Level Memphis Center
Sun 06:07:08 PM 34.4897 -92.8769 252° West 420 483 43,000  Level Memphis Center
Sun 06:08:08 PM 34.4578 -93.0094 254° West 420 483 43,000  Level Memphis Center
Sun 06:09:08 PM 34.4239 -93.1267 251° West 420 483 43,000  Level Memphis Center
Sun 06:10:08 PM 34.3872 -93.2617 252° West 420 483 43,000  Level Memphis Center
Sun 06:11:08 PM 34.3508 -93.3936 252° West 420 483 43,000  Level Memphis Center
Sun 06:12:08 PM 34.3161 -93.5256 252° West 420 483 43,000  Level Memphis Center
Sun 06:12:50 PM 34.2956 -93.6178 255° West 417 480 43,000  Level Fort Worth Center
Sun 06:13:51 PM 34.2597 -93.7475 252° West 411 473 43,000  Level Fort Worth Center
Sun 06:14:50 PM 34.2236 -93.8769 251° West 411 473 43,000  Level Fort Worth Center
Sun 06:15:50 PM 34.1878 -94.0064 252° West 411 473 43,000  Level Fort Worth Center
Sun 06:16:50 PM 34.1514 -94.1358 251° West 411 473 43,000 -600 Level Fort Worth Center
Sun 06:17:50 PM 34.1153 -94.2678 252° West 411 473 41,800 -1,350 Descending Fort Worth Center
Sun 06:18:50 PM 34.0786 -94.3969 251° West 411 473 40,300 -1,450 Descending Fort Worth Center
Sun 06:19:50 PM 34.0589 -94.5306 260° West 404 465 38,900 -1,450 Descending Fort Worth Center
Sun 06:20:50 PM 34.0492 -94.6586 265° West 404 465 37,400 -1,500 Descending Fort Worth Center
Sun 06:21:50 PM 34.0356 -94.7944 263° West 404 465 35,900 -1,500 Descending Fort Worth Center
Sun 06:22:50 PM 34.0236 -94.9300 264° West 410 472 34,400 -1,500 Descending Fort Worth Center
Sun 06:23:50 PM 34.0117 -95.0708 264° West 410 472 32,900 -1,550 Descending Fort Worth Center
Sun 06:24:50 PM 33.9975 -95.2114 263° West 421 484 31,300 -1,550 Descending Fort Worth Center
Sun 06:25:50 PM 33.9853 -95.3519 264° West 427 491 29,800 -1,500 Descending Fort Worth Center
Sun 06:26:50 PM 33.9731 -95.4950 264° West 427 491 28,300 -1,488 Descending Fort Worth Center
Sun 06:27:51 PM 33.9603 -95.6306 264° West 420 483 26,800 -1,500 Descending Fort Worth Center
Sun 06:28:50 PM 33.9308 -95.7639 255° West 420 483 25,300 -1,563 Descending Fort Worth Center
Sun 06:29:50 PM 33.8167 -95.7961 193° South 358 412 23,700 -2,000 Descending Fort Worth Center
Sun 06:30:50 PM 33.7100 -95.7981 181° South 358 412 21,300 -2,380 Descending Fort Worth Center
Sun 06:31:51 PM 33.6058 -95.8047 183° South 358 412 18,900 -2,450 Descending Fort Worth Center
Sun 06:32:50 PM 33.5119 -95.8114 183° South 358 412 16,400 -2,467 Descending Fort Worth Center
Sun 06:34:51 PM 33.3883 -95.9431 222° Southwest 296 341 11,500 -2,400 Descending Fort Worth Center
Sun 06:35:50 PM 33.3728 -96.0378 259° West 280 322 9,200 -1,311 Descending Fort Worth Center
Sun 06:36:50 PM 33.3425 -96.1228 247° West 280 322 8,900 -100 Descending Fort Worth Center
Sun 06:37:50 PM 33.3119 -96.2028 245° Southwest 280 322 9,000 50 Climbing Fort Worth Center
Sun 06:38:50 PM 33.2792 -96.2903 246° West 280 322 9,000 -200 Level Fort Worth Center
Sun 06:39:50 PM 33.2403 -96.3728 241° Southwest 280 322 8,600 -1,043 Descending Fort Worth Center
Sun 06:40:45 PM 33.2000 -96.4500 238° Southwest 275 316 7,000 -1,667 Descending Dallas / Fort Worth TRACON
Sun 06:41:38 PM 33.1667 -96.5167 239° Southwest 253 291 5,600 -1,431 Descending Dallas / Fort Worth TRACON
Sun 06:42:34 PM 33.1333 -96.5833 239° Southwest 248 285 4,400 -842 Descending Dallas / Fort Worth TRACON
Sun 06:43:32 PM 33.1000 -96.6500 239° Southwest 258 297 4,000 -203 Descending Dallas / Fort Worth TRACON
Sun 06:44:32 PM 33.0500 -96.7167 228° Southwest 262 302 4,000 -472 Level Dallas / Fort Worth TRACON
Sun 06:45:39 PM 33.0000 -96.7833 228° Southwest 198 228 3,000 -500 Descending Dallas / Fort Worth TRACON
Sun 06:46:32 PM 32.9667 -96.8167 220° Southwest 199 229 3,000 -403 Level Dallas / Fort Worth TRACON
Sun 06:47:38 PM 32.9333 -96.8833 239° Southwest 204 235 2,200 -744 Descending Dallas / Fort Worth TRACON
Sun 06:48:33 PM 32.9000 -96.9000 203° Southwest 149 171 1,500 -672 Descending Dallas / Fort Worth TRACON
Sun 06:49:34 PM 32.8667 -96.8667 140° Southeast 110 127 900 -590 Descending Dallas / Fort Worth TRACON
Sun 06:52:00 PM 32.8471 -96.8518 140° Southeast  Level Estimated

Login

Don't have an account? Register now (free) for customized features, flight alerts, and more!